Time;durP1;ratioP1;P1;durP2;ratioP2;P2;SDS_P1;SDS_P2;PMS_P1;PMS_P2;Temp;Humidity;BMP_temperature;BMP_pressure;BME280_temperature;BME280_humidity;BME280_pressure;Samples;Min_cycle;Max_cycle;Signal;HPM_P1;HPM_P2
2023/11/17 00:01:48;;;;;;;23.13;13.43;;;;;;;;;;5090272;28;20047;-84
2023/11/17 00:04:19;;;;;;;22.60;13.75;;;;;;;;;;5090079;28;20500;-84
2023/11/17 00:06:50;;;;;;;22.92;13.55;;;;;;;;;;5102519;28;20393;-83
2023/11/17 00:09:20;;;;;;;22.52;14.48;;;;;;;;;;5107875;28;20043;-82
2023/11/17 00:11:50;;;;;;;26.38;14.63;;;;;;;;;;5107664;28;20048;-82
2023/11/17 00:14:20;;;;;;;26.20;14.50;;;;;;;;;;5103011;28;20689;-82
2023/11/17 00:16:50;;;;;;;21.38;13.15;;;;;;;;;;5110184;28;20107;-83
2023/11/17 00:19:22;;;;;;;25.02;13.80;;;;;;;;;;5105987;28;20046;-83
2023/11/17 00:21:52;;;;;;;23.40;13.98;;;;;;;;;;5108431;28;20044;-82
2023/11/17 00:24:24;;;;;;;24.38;14.32;;;;;;;;;;5108316;28;20032;-83
2023/11/17 00:26:54;;;;;;;23.02;13.63;;;;;;;;;;5105125;28;20044;-82
2023/11/17 00:29:24;;;;;;;21.80;13.40;;;;;;;;;;5096950;28;20390;-82
2023/11/17 00:31:55;;;;;;;22.88;13.68;;;;;;;;;;5090999;28;20052;-82
2023/11/17 00:34:25;;;;;;;22.75;14.20;;;;;;;;;;5095293;28;20413;-82
2023/11/17 00:36:58;;;;;;;22.38;13.68;;;;;;;;;;5092153;28;20044;-82
2023/11/17 00:39:28;;;;;;;20.73;12.82;;;;;;;;;;5094424;28;20400;-85
2023/11/17 00:41:58;;;;;;;21.80;13.80;;;;;;;;;;5093480;28;20051;-82
2023/11/17 00:44:30;;;;;;;23.10;14.40;;;;;;;;;;5092160;28;20047;-82
2023/11/17 00:47:04;;;;;;;26.15;14.93;;;;;;;;;;5093853;28;20055;-81
2023/11/17 00:49:35;;;;;;;24.60;15.75;;;;;;;;;;5093812;28;20044;-83
2023/11/17 00:52:05;;;;;;;24.23;14.27;;;;;;;;;;5094315;28;20051;-82
2023/11/17 00:54:42;;;;;;;24.30;15.30;;;;;;;;;;5093071;28;20070;-82
2023/11/17 00:57:13;;;;;;;25.48;14.38;;;;;;;;;;5094979;28;20462;-82
2023/11/17 00:59:43;;;;;;;23.02;13.90;;;;;;;;;;5094693;28;20047;-81
2023/11/17 01:02:15;;;;;;;24.65;14.52;;;;;;;;;;5094792;28;20474;-81
2023/11/17 01:04:45;;;;;;;27.17;13.88;;;;;;;;;;5094770;28;20048;-80
2023/11/17 01:07:17;;;;;;;21.77;13.82;;;;;;;;;;5094654;28;20405;-82
2023/11/17 01:09:47;;;;;;;;;;;;;;;;;;5093687;28;20055;-79
2023/11/17 01:12:18;;;;;;;28.05;14.45;;;;;;;;;;5093619;28;20389;-80
2023/11/17 01:14:48;;;;;;;30.52;15.30;;;;;;;;;;5094418;28;20048;-80
2023/11/17 01:17:18;;;;;;;23.33;14.48;;;;;;;;;;5094099;28;20055;-81
2023/11/17 01:19:48;;;;;;;25.60;14.80;;;;;;;;;;5094019;28;20059;-81
2023/11/17 01:22:19;;;;;;;24.17;14.25;;;;;;;;;;5093186;28;20505;-80
2023/11/17 01:24:49;;;;;;;26.00;15.00;;;;;;;;;;5092152;28;20055;-80
2023/11/17 01:27:19;;;;;;;24.58;15.55;;;;;;;;;;5092957;28;20051;-80
2023/11/17 01:29:49;;;;;;;25.23;14.18;;;;;;;;;;5091721;28;20048;-80
2023/11/17 01:32:20;;;;;;;24.25;15.40;;;;;;;;;;5094306;28;20044;-80
2023/11/17 01:34:54;;;;;;;20.00;13.68;;;;;;;;;;5093988;28;20044;-81
2023/11/17 01:37:26;;;;;;;24.30;12.32;;;;;;;;;;5075976;28;20052;-81
2023/11/17 01:39:58;;;;;;;24.05;13.27;;;;;;;;;;5092586;28;20036;-78
2023/11/17 01:42:32;;;;;;;26.73;15.50;;;;;;;;;;5092035;28;20060;-79
2023/11/17 01:45:07;;;;;;;24.42;14.48;;;;;;;;;;5093721;28;20051;-80
2023/11/17 01:47:39;;;;;;;20.83;13.02;;;;;;;;;;5092280;28;20056;-79
2023/11/17 01:57:42;;;;;;;11.35;7.13;;;;;;;;;;5180992;23;20063;-78
2023/11/17 02:00:54;;;;;;;11.75;7.28;;;;;;;;;;4942270;29;20044;-79
2023/11/17 02:03:24;;;;;;;10.65;6.85;;;;;;;;;;4969838;28;20066;-81
2023/11/17 02:06:05;;;;;;;9.93;6.75;;;;;;;;;;4953878;28;20425;-80
2023/11/17 02:09:21;;;;;;;11.20;6.68;;;;;;;;;;4959176;28;21579;-79
2023/11/17 02:11:52;;;;;;;11.43;7.68;;;;;;;;;;4964278;28;20049;-80
2023/11/17 02:14:26;;;;;;;12.57;8.05;;;;;;;;;;4993361;28;20046;-78
2023/11/17 02:17:28;;;;;;;14.00;8.98;;;;;;;;;;4992741;28;20046;-80
2023/11/17 02:20:11;;;;;;;14.15;9.10;;;;;;;;;;4991346;28;20432;-80
2023/11/17 02:22:47;;;;;;;15.25;10.15;;;;;;;;;;4992114;28;20050;-80
2023/11/17 02:26:15;;;;;;;14.93;9.80;;;;;;;;;;4993729;28;20044;-81
2023/11/17 02:28:59;;;;;;;16.73;10.55;;;;;;;;;;4984664;28;20053;-81
2023/11/17 02:31:35;;;;;;;16.20;10.57;;;;;;;;;;4989080;28;20042;-82
2023/11/17 02:34:14;;;;;;;16.50;10.75;;;;;;;;;;4990761;28;20440;-80
2023/11/17 02:36:47;;;;;;;16.73;10.80;;;;;;;;;;4988372;28;20061;-81
2023/11/17 02:39:25;;;;;;;17.83;10.52;;;;;;;;;;4991276;28;20054;-82
2023/11/17 02:41:59;;;;;;;18.40;10.52;;;;;;;;;;4993177;28;20413;-82
2023/11/17 02:44:33;;;;;;;14.23;9.55;;;;;;;;;;4992763;28;20046;-82
2023/11/17 02:47:04;;;;;;;15.88;9.82;;;;;;;;;;4992405;28;20057;-81
2023/11/17 02:49:46;;;;;;;17.95;10.98;;;;;;;;;;4993063;28;20049;-81
2023/11/17 02:52:48;;;;;;;17.42;10.35;;;;;;;;;;4992921;28;20049;-80
2023/11/17 02:55:21;;;;;;;19.30;10.65;;;;;;;;;;4993163;28;20086;-83
2023/11/17 02:57:54;;;;;;;15.43;10.65;;;;;;;;;;4990920;28;20055;-81
2023/11/17 03:00:24;;;;;;;16.48;10.40;;;;;;;;;;4958561;28;20050;-81
2023/11/17 03:02:57;;;;;;;16.10;10.15;;;;;;;;;;4968545;28;20058;-82
2023/11/17 03:05:28;;;;;;;16.23;10.18;;;;;;;;;;4968821;28;20050;-83
2023/11/17 03:08:00;;;;;;;15.90;10.65;;;;;;;;;;4968594;28;20409;-80
2023/11/17 03:10:31;;;;;;;16.48;10.10;;;;;;;;;;4990987;28;20046;-81
2023/11/17 03:13:02;;;;;;;17.52;10.15;;;;;;;;;;4991097;28;20054;-82
2023/11/17 03:15:32;;;;;;;18.75;10.23;;;;;;;;;;4990825;28;20065;-80
2023/11/17 03:18:09;;;;;;;15.75;10.43;;;;;;;;;;4990703;28;20054;-80
2023/11/17 03:20:39;;;;;;;17.40;10.23;;;;;;;;;;4991350;28;20042;-80
2023/11/17 03:23:09;;;;;;;17.50;9.98;;;;;;;;;;4992664;28;20449;-80
2023/11/17 03:25:39;;;;;;;17.02;10.35;;;;;;;;;;4992956;28;20477;-81
2023/11/17 03:28:13;;;;;;;16.75;9.38;;;;;;;;;;4992460;28;20050;-80
2023/11/17 03:30:43;;;;;;;18.35;10.13;;;;;;;;;;4987993;28;20415;-80
2023/11/17 03:33:13;;;;;;;16.50;9.90;;;;;;;;;;4991607;28;20514;-79
2023/11/17 03:35:44;;;;;;;16.60;10.32;;;;;;;;;;4991735;28;20416;-82
2023/11/17 03:38:14;;;;;;;16.25;9.93;;;;;;;;;;4990083;28;20066;-80
2023/11/17 03:40:47;;;;;;;16.00;10.13;;;;;;;;;;4992779;28;20046;-80
2023/11/17 03:43:18;;;;;;;15.93;10.10;;;;;;;;;;4990779;28;20058;-80
2023/11/17 03:45:48;;;;;;;15.48;9.60;;;;;;;;;;4991521;28;20051;-82
2023/11/17 03:48:22;;;;;;;17.75;10.82;;;;;;;;;;4991937;28;20050;-82
2023/11/17 03:50:52;;;;;;;16.27;9.82;;;;;;;;;;4992528;28;20042;-81
2023/11/17 03:53:22;;;;;;;18.75;10.85;;;;;;;;;;4992677;28;20046;-80
2023/11/17 03:55:53;;;;;;;15.95;9.77;;;;;;;;;;4990048;28;20098;-80
2023/11/17 03:58:27;;;;;;;21.65;11.70;;;;;;;;;;4990611;28;20055;-81
2023/11/17 04:00:57;;;;;;;16.75;11.02;;;;;;;;;;4972017;28;20050;-81
2023/11/17 04:03:27;;;;;;;19.00;11.05;;;;;;;;;;4971897;28;20062;-81
2023/11/17 04:05:57;;;;;;;19.05;10.45;;;;;;;;;;4976039;28;20429;-80
2023/11/17 04:08:27;;;;;;;19.77;11.18;;;;;;;;;;4959862;28;20055;-80
2023/11/17 04:10:57;;;;;;;17.88;11.18;;;;;;;;;;4976531;28;20047;-81
2023/11/17 04:13:30;;;;;;;17.20;10.40;;;;;;;;;;4977783;28;20043;-83
2023/11/17 04:16:00;;;;;;;17.80;10.90;;;;;;;;;;4977331;28;20047;-81
2023/11/17 04:18:33;;;;;;;16.20;10.65;;;;;;;;;;4977398;28;20154;-82
2023/11/17 04:21:06;;;;;;;15.68;10.30;;;;;;;;;;4976145;28;20047;-84
2023/11/17 04:23:39;;;;;;;16.90;10.75;;;;;;;;;;4977457;28;20039;-81
2023/11/17 04:26:10;;;;;;;16.00;10.30;;;;;;;;;;4977287;28;20046;-83
2023/11/17 04:28:40;;;;;;;15.98;10.27;;;;;;;;;;4975423;28;20058;-81
2023/11/17 04:31:10;;;;;;;17.65;10.23;;;;;;;;;;4977048;28;20058;-81
2023/11/17 04:33:40;;;;;;;15.82;9.88;;;;;;;;;;4976821;28;20055;-81
2023/11/17 04:36:11;;;;;;;17.08;10.23;;;;;;;;;;4977556;28;20058;-82
2023/11/17 10:52:27;;;;;;;30.63;18.45;;;;;;;;;;5131423;27;20139;-80
2023/11/17 10:54:59;;;;;;;26.10;15.90;;;;;;;;;;5134321;27;20058;-81
2023/11/17 10:57:29;;;;;;;;;;;;;;;;;;5128581;27;20046;-81
2023/11/17 10:59:59;;;;;;;26.83;16.20;;;;;;;;;;5128388;28;19919;-80
2023/11/17 11:02:30;;;;;;;29.20;16.65;;;;;;;;;;5129278;28;20050;-81
2023/11/17 11:05:04;;;;;;;29.48;17.52;;;;;;;;;;5129072;28;20458;-80
2023/11/17 11:07:44;;;;;;;31.45;18.13;;;;;;;;;;5129043;28;20500;-80
2023/11/17 11:10:16;;;;;;;31.90;16.98;;;;;;;;;;5110788;28;20412;-80
2023/11/17 11:13:03;;;;;;;31.50;18.20;;;;;;;;;;5128096;28;20130;-82
2023/11/17 11:15:34;;;;;;;29.17;17.02;;;;;;;;;;5127524;28;20046;-80
2023/11/17 11:18:06;;;;;;;29.20;18.20;;;;;;;;;;5128726;28;20047;-79
2023/11/17 11:20:38;;;;;;;28.38;16.60;;;;;;;;;;5125838;27;20076;-79
2023/11/17 11:23:11;;;;;;;28.45;15.90;;;;;;;;;;5077182;28;20047;-78
2023/11/17 11:25:40;;;;;;;;;;;;;;;;;;5126256;28;20520;-79
2023/11/17 11:28:12;;;;;;;26.70;15.52;;;;;;;;;;5127698;28;19927;-79
2023/11/17 11:30:44;;;;;;;27.67;16.70;;;;;;;;;;5109567;28;20421;-80
2023/11/17 11:33:20;;;;;;;29.60;17.23;;;;;;;;;;5106469;28;20488;-80
2023/11/17 11:35:50;;;;;;;28.13;16.80;;;;;;;;;;5107106;28;20047;-79
2023/11/17 11:38:21;;;;;;;30.30;19.17;;;;;;;;;;5108195;28;20059;-80
2023/11/17 11:40:52;;;;;;;30.60;18.55;;;;;;;;;;5109624;28;20140;-80
2023/11/17 11:43:22;;;;;;;30.83;18.60;;;;;;;;;;5112919;28;20052;-81
2023/11/17 11:45:57;;;;;;;27.25;15.52;;;;;;;;;;5113365;28;20039;-80
2023/11/17 11:48:33;;;;;;;26.80;16.00;;;;;;;;;;5130389;28;20050;-81
2023/11/17 11:51:10;;;;;;;27.20;16.75;;;;;;;;;;5112207;28;20483;-82
2023/11/17 11:53:59;;;;;;;26.95;16.65;;;;;;;;;;5116631;28;20050;-81
2023/11/17 11:56:41;;;;;;;28.27;16.58;;;;;;;;;;5119127;28;20050;-81
2023/11/17 11:59:12;;;;;;;30.77;18.73;;;;;;;;;;5115454;28;20040;-82
2023/11/17 12:01:43;;;;;;;32.88;18.98;;;;;;;;;;5106172;28;20048;-81
2023/11/17 12:04:18;;;;;;;30.45;19.58;;;;;;;;;;5102983;28;20485;-81
2023/11/17 12:06:51;;;;;;;34.20;19.33;;;;;;;;;;5090098;28;20048;-83
2023/11/17 12:09:24;;;;;;;32.90;19.50;;;;;;;;;;5091910;28;20051;-81
2023/11/17 12:11:57;;;;;;;33.13;20.33;;;;;;;;;;5106855;28;20044;-81
2023/11/17 12:14:34;;;;;;;34.47;19.95;;;;;;;;;;5097773;28;20040;-84
2023/11/17 12:17:04;;;;;;;34.15;20.13;;;;;;;;;;5095770;28;20047;-82
2023/11/17 12:19:35;;;;;;;35.95;23.08;;;;;;;;;;5096396;28;20413;-86
2023/11/17 12:22:06;;;;;;;34.10;21.30;;;;;;;;;;5096025;28;20486;-81
2023/11/17 14:27:38;;;;;;;36.92;25.27;;;;;;;;;;5149126;27;20872;-85
2023/11/17 14:30:17;;;;;;;36.83;24.77;;;;;;;;;;5112241;28;20059;-85
2023/11/17 14:32:49;;;;;;;36.47;23.48;;;;;;;;;;5110743;28;20121;-84
2023/11/17 14:35:20;;;;;;;40.53;24.25;;;;;;;;;;5127137;28;20044;-86
2023/11/17 14:37:55;;;;;;;36.35;24.58;;;;;;;;;;5125984;28;20047;-85
2023/11/17 14:40:27;;;;;;;41.90;28.02;;;;;;;;;;5110798;28;20432;-88
2023/11/17 14:42:59;;;;;;;38.88;26.05;;;;;;;;;;5073952;28;20507;-86
2023/11/17 14:45:30;;;;;;;37.70;25.48;;;;;;;;;;5068674;28;20051;-86
2023/11/17 14:48:01;;;;;;;40.80;27.42;;;;;;;;;;5069419;28;20408;-88
2023/11/17 14:50:34;;;;;;;37.47;26.42;;;;;;;;;;5084914;28;20049;-88
2023/11/17 14:53:06;;;;;;;35.00;24.02;;;;;;;;;;5069876;28;20049;-88
2023/11/17 14:59:13;;;;;;;39.13;26.45;;;;;;;;;;5069306;28;20056;-83
2023/11/17 15:01:48;;;;;;;39.45;24.85;;;;;;;;;;5065854;28;20052;-84
2023/11/17 15:04:22;;;;;;;38.95;25.95;;;;;;;;;;5049071;28;20387;-83
2023/11/17 15:06:54;;;;;;;36.45;24.27;;;;;;;;;;5049056;28;20514;-83
2023/11/17 15:29:09;;;;;;;37.85;25.73;;;;;;;;;;5089481;28;20403;-82
2023/11/17 15:31:40;;;;;;;38.22;26.30;;;;;;;;;;5082837;28;20048;-82
2023/11/17 15:34:15;;;;;;;43.20;29.83;;;;;;;;;;5071540;28;20048;-82
2023/11/17 15:36:45;;;;;;;41.55;29.63;;;;;;;;;;5089303;28;20406;-83
2023/11/17 15:39:15;;;;;;;44.63;29.52;;;;;;;;;;5088714;28;20482;-82
2023/11/17 15:41:46;;;;;;;40.97;29.20;;;;;;;;;;5071371;28;20051;-83
2023/11/17 15:44:18;;;;;;;43.55;30.48;;;;;;;;;;5089297;28;20051;-81
2023/11/17 15:46:48;;;;;;;42.33;29.35;;;;;;;;;;5089831;28;20056;-81
2023/11/17 15:49:19;;;;;;;44.20;30.15;;;;;;;;;;5090085;28;20048;-82
2023/11/17 15:51:58;;;;;;;40.80;27.85;;;;;;;;;;5071123;28;20052;-80
2023/11/17 15:54:28;;;;;;;43.22;29.42;;;;;;;;;;5090104;28;20129;-83
2023/11/17 15:56:58;;;;;;;43.00;30.23;;;;;;;;;;5089781;28;20055;-82
2023/11/17 15:59:28;;;;;;;42.08;29.08;;;;;;;;;;5070992;28;20082;-82
2023/11/17 16:02:00;;;;;;;41.83;28.10;;;;;;;;;;5071795;28;20521;-83
2023/11/17 16:04:32;;;;;;;43.90;29.50;;;;;;;;;;5085488;28;20056;-85
2023/11/17 16:07:02;;;;;;;42.15;28.88;;;;;;;;;;5052097;28;20048;-85
2023/11/17 16:09:33;;;;;;;39.95;28.80;;;;;;;;;;5068580;28;20049;-85
2023/11/17 16:12:04;;;;;;;41.70;27.40;;;;;;;;;;5051062;28;20056;-82
2023/11/17 16:14:36;;;;;;;41.60;29.27;;;;;;;;;;5068590;28;20044;-86
2023/11/17 16:17:11;;;;;;;42.13;29.90;;;;;;;;;;5050191;28;20060;-85
2023/11/17 16:19:43;;;;;;;43.45;29.10;;;;;;;;;;5067281;28;20040;-86
2023/11/17 16:22:13;;;;;;;42.13;28.58;;;;;;;;;;5088584;28;20036;-86
2023/11/17 16:24:43;;;;;;;41.33;27.70;;;;;;;;;;5069114;28;20474;-82
2023/11/17 16:27:14;;;;;;;40.33;27.85;;;;;;;;;;5088578;28;20055;-84
2023/11/17 16:46:58;;;;;;;43.15;27.88;;;;;;;;;;5283732;23;19929;-82
2023/11/17 17:06:43;;;;;;;42.15;27.73;;;;;;;;;;4822256;29;20058;-82
2023/11/17 17:09:54;;;;;;;42.28;28.63;;;;;;;;;;4786187;29;20059;-83
2023/11/17 17:17:36;;;;;;;43.85;28.95;;;;;;;;;;4766275;30;20059;-85
2023/11/17 17:21:51;;;;;;;40.10;28.30;;;;;;;;;;4744726;30;20153;-82
2023/11/17 17:41:25;;;;;;;47.05;29.77;;;;;;;;;;4747349;30;20162;-83
2023/11/17 17:45:12;;;;;;;40.72;28.92;;;;;;;;;;4746004;30;20076;-82
2023/11/17 17:48:36;;;;;;;44.25;30.00;;;;;;;;;;4734244;30;20448;-82
2023/11/17 18:01:43;;;;;;;40.08;28.67;;;;;;;;;;4879687;29;20040;-81
2023/11/17 18:05:00;;;;;;;41.40;28.05;;;;;;;;;;4884615;29;20041;-82
2023/11/17 18:21:02;;;;;;;42.20;28.73;;;;;;;;;;4897387;29;20053;-84
2023/11/17 18:24:26;;;;;;;44.88;30.15;;;;;;;;;;4803374;29;20062;-84
2023/11/17 18:27:54;;;;;;;40.35;28.73;;;;;;;;;;4767335;30;20058;-84
2023/11/17 18:31:33;;;;;;;45.08;30.15;;;;;;;;;;4767969;30;20059;-84
2023/11/17 18:38:54;;;;;;;;;;;;;;;;;;;;;
2023/11/17 18:50:55;;;;;;;45.40;30.95;;;;;;;;;;4645967;30;20066;-84
2023/11/17 18:54:17;;;;;;;49.65;32.42;;;;;;;;;;4624754;30;20063;-84
2023/11/17 19:11:45;;;;;;;98.65;35.60;;;;;;;;;;4632561;30;20093;-85
2023/11/17 19:24:20;;;;;;;55.90;36.17;;;;;;;;;;4692879;30;20046;-82
2023/11/17 19:27:33;;;;;;;56.13;38.45;;;;;;;;;;4685448;30;20068;-84
2023/11/17 19:31:04;;;;;;;57.08;38.20;;;;;;;;;;4715035;30;20064;-85
2023/11/17 20:58:16;;;;;;;64.93;42.42;;;;;;;;;;4817184;29;20051;-82
2023/11/17 21:01:45;;;;;;;63.50;40.83;;;;;;;;;;4813143;29;20051;-82
2023/11/17 21:04:35;;;;;;;65.38;41.35;;;;;;;;;;4817836;29;20141;-82
2023/11/17 21:07:18;;;;;;;64.45;42.08;;;;;;;;;;4791538;29;20050;-84
2023/11/17 21:10:35;;;;;;;65.63;42.13;;;;;;;;;;4780150;29;20055;-82
2023/11/17 21:17:57;;;;;;;65.80;41.88;;;;;;;;;;4731308;30;20060;-84
2023/11/17 21:20:44;;;;;;;70.82;42.97;;;;;;;;;;4731143;30;20056;-82
2023/11/17 21:23:53;;;;;;;67.93;42.63;;;;;;;;;;4718596;30;20559;-82
2023/11/17 21:27:13;;;;;;;71.00;43.55;;;;;;;;;;4715066;30;20523;-82
2023/11/17 21:30:27;;;;;;;67.28;43.60;;;;;;;;;;4702874;30;20094;-84
2023/11/17 21:37:41;;;;;;;66.68;43.08;;;;;;;;;;4750119;30;20488;-82
2023/11/17 21:41:18;;;;;;;73.22;43.58;;;;;;;;;;4715429;30;20052;-85
2023/11/17 22:08:24;;;;;;;74.63;44.90;;;;;;;;;;4696770;30;20103;-82
2023/11/17 22:11:51;;;;;;;70.95;44.72;;;;;;;;;;4645529;30;20506;-82
2023/11/17 22:14:56;;;;;;;78.38;47.30;;;;;;;;;;4686690;30;20833;-83
2023/11/17 22:17:55;;;;;;;74.35;45.55;;;;;;;;;;4679861;30;20425;-83
2023/11/17 22:29:23;;;;;;;73.82;44.90;;;;;;;;;;4731400;30;20040;-81
2023/11/17 22:33:27;;;;;;;74.22;45.13;;;;;;;;;;4722018;30;20056;-82
2023/11/17 22:44:59;;;;;;;74.60;45.97;;;;;;;;;;4728566;30;20049;-84
2023/11/17 22:52:41;;;;;;;74.72;45.80;;;;;;;;;;4778455;30;20048;-83
2023/11/17 23:03:11;;;;;;;77.13;46.45;;;;;;;;;;4664618;30;20427;-84
2023/11/17 23:05:43;;;;;;;79.22;46.35;;;;;;;;;;4677039;30;20512;-84
2023/11/17 23:08:17;;;;;;;74.18;46.90;;;;;;;;;;4722765;30;20071;-86
2023/11/17 23:10:48;;;;;;;75.70;47.13;;;;;;;;;;4749626;30;20056;-83
2023/11/17 23:13:32;;;;;;;82.03;48.90;;;;;;;;;;4750273;30;20067;-85
2023/11/17 23:41:17;;;;;;;82.75;49.00;;;;;;;;;;5570564;23;20062;-83
2023/11/17 23:43:49;;;;;;;77.45;47.92;;;;;;;;;;4907025;29;20056;-86
2023/11/17 23:46:21;;;;;;;81.65;47.47;;;;;;;;;;4923073;29;20054;-81
2023/11/17 23:48:55;;;;;;;80.63;49.28;;;;;;;;;;4939344;29;20490;-82
2023/11/17 23:51:29;;;;;;;78.60;46.60;;;;;;;;;;4922168;29;20059;-82
2023/11/17 23:54:07;;;;;;;80.50;49.00;;;;;;;;;;4938586;29;20048;-83
2023/11/17 23:56:38;;;;;;;78.93;48.58;;;;;;;;;;4939752;29;20044;-84
2023/11/17 23:59:11;;;;;;;79.40;50.15;;;;;;;;;;4939294;29;20055;-83
